Hwy 5 at Elkhorn Atmospheric Data: 02/26/2021 Summary  Detailed Graphs  Station List

  Temperature     Wind Precipitation Visibility
Timestamp Air Wet
Bulb
Dew-
point
24-hr
Max
24-hr
Min
Relative
Humidity
Atmospheric
Pressure
Avg
Speed
Avg
Dir
Spot
Speed
Spot
Dir
Max
Speed
Max
Dir
  Rate Situation Start End 1 hr 3 hr 6 hr 12 hr 24 hr   Situation
Date Time °F °F °F °F °F % in Hg mph ° mph ° mph ° Y/N in/hr text Date Time Date Time in in in in in mi text
02/26/2021 12:00 AM 47.12 40.46 31.82 67.10 41.72 55.0 Not Reported 0.67 NE 0.00 E 2.24 E No 0.000 No Precipitation     0.000 0.000 0.000 0.000 0.000 1.65 Clear
02/26/2021 12:15 AM 44.96 39.20 32.00 67.10 41.72 60.0 Not Reported 0.00 N 0.00 NW 1.12 NE No 0.000 No Precipitation     0.000 0.000 0.000 0.000 0.000 1.66 Clear
02/26/2021 12:30 AM 43.88 38.48 31.46 67.10 41.72 61.0 Not Reported 3.36 N 3.13 N 3.58 N No 0.000 No Precipitation     0.000 0.000 0.000 0.000 0.000 1.70 Clear
02/26/2021 12:45 AM 43.52 38.30 31.46 67.10 41.72 62.0 Not Reported 4.47 NW 5.14 NW 3.80 N No 0.000 No Precipitation     0.000 0.000 0.000 0.000 0.000 1.65 Clear
02/26/2021 01:00 AM 43.52 38.48 31.82 67.10 41.72 63.0 Not Reported 4.47 N 4.25 N 5.37 N No 0.000 No Precipitation     0.000 0.000 0.000 0.000 0.000 1.66 Clear
02/26/2021 01:15 AM 42.08 38.12 32.90 67.10 41.72 70.0 Not Reported 4.25 N 4.47 N 4.70 N No 0.000 No Precipitation     0.000 0.000 0.000 0.000 0.000 1.67 Clear
02/26/2021 01:30 AM 41.90 37.22 31.10 67.10 41.72 65.0 Not Reported 5.14 N 5.14 N 5.37 N No 0.000 No Precipitation     0.000 0.000 0.000 0.000 0.000 1.65 Clear
02/26/2021 01:45 AM 42.26 37.58 31.46 67.10 41.72 65.0 Not Reported 5.82 N 5.14 N 6.26 N No 0.000 No Precipitation     0.000 0.000 0.000 0.000 0.000 1.63 Clear
02/26/2021 02:00 AM 41.72 37.22 31.28 67.10 41.72 66.0 Not Reported 4.92 N 4.92 N 5.82 N No 0.000 No Precipitation     0.000 0.000 0.000 0.000 0.000 1.67 Clear
02/26/2021 02:15 AM 41.00 37.04 31.64 67.10 41.72 69.0 Not Reported 4.25 N 4.70 N 5.14 N No 0.000 No Precipitation     0.000 0.000 0.000 0.000 0.000 1.65 Clear
02/26/2021 02:30 AM 41.90 37.58 31.82 67.10 41.72 67.0 Not Reported 1.57 SE 1.79 SE 5.37 N No 0.000 No Precipitation     0.000 0.000 0.000 0.000 0.000 1.64 Clear
02/26/2021 02:45 AM 41.00 37.22 32.18 67.10 41.72 71.0 Not Reported 2.91 E 3.58 E 2.91 SE No 0.000 No Precipitation     0.000 0.000 0.000 0.000 0.000 1.64 Clear
02/26/2021 03:00 AM 41.18 37.40 32.36 67.10 41.72 71.0 Not Reported 2.01 NE 2.24 NE 3.58 E No 0.000 No Precipitation     0.000 0.000 0.000 0.000 0.000 1.63 Clear
02/26/2021 03:15 AM 39.56 36.32 32.00 67.10 41.72 74.0 Not Reported 2.46 NW 2.91 NW 2.68 NE No 0.000 No Precipitation     0.000 0.000 0.000 0.000 0.000 1.69 Clear
02/26/2021 03:30 AM 38.12 35.24 31.28 67.10 41.72 76.0 Not Reported 3.80 NW 3.80 NW 4.03 NW No 0.000 No Precipitation     0.000 0.000 0.000 0.000 0.000 1.73 Clear
02/26/2021 03:45 AM 36.86 34.34 31.10 67.10 41.72 79.0 Not Reported 3.80 N 3.58 N 4.70 N No 0.000 No Precipitation     0.000 0.000 0.000 0.000 0.000 1.78 Clear
02/26/2021 04:00 AM 38.12 35.42 32.00 67.10 41.72 78.0 Not Reported 4.92 N 4.92 N 5.59 N No 0.000 No Precipitation     0.000 0.000 0.000 0.000 0.000 1.77 Clear
02/26/2021 04:15 AM 38.84 35.96 32.00 67.10 41.72 76.0 Not Reported 2.46 NE 3.13 NE 5.37 N No 0.000 No Precipitation     0.000 0.000 0.000 0.000 0.000 1.75 Clear
02/26/2021 04:30 AM 38.48 35.60 32.00 67.10 41.72 77.0 Not Reported 1.79 NE 1.34 N 3.13 NE No 0.000 No Precipitation     0.000 0.000 0.000 0.000 0.000 1.72 Clear
02/26/2021 04:45 AM 39.02 36.14 32.00 67.10 41.72 76.0 Not Reported 2.68 N 2.91 N 2.91 NW No 0.000 No Precipitation     0.000 0.000 0.000 0.000 0.000 1.73 Clear
02/26/2021 05:00 AM 39.02 36.14 32.00 67.10 41.72 76.0 Not Reported 2.24 NW 2.68 NW 3.13 NW No 0.000 No Precipitation     0.000 0.000 0.000 0.000 0.000 1.75 Clear
02/26/2021 05:15 AM 37.58 35.24 32.18 67.10 41.72 81.0 Not Reported 3.80 NW 4.03 NW 3.13 NW No 0.000 No Precipitation     0.000 0.000 0.000 0.000 0.000 1.80 Clear
02/26/2021 05:30 AM 36.86 34.70 31.64 67.10 41.72 81.0 Not Reported 4.92 NW 4.47 NW 6.71 NW No 0.000 No Precipitation     0.000 0.000 0.000 0.000 0.000 1.81 Clear
02/26/2021 05:45 AM 38.48 35.60 32.00 67.10 41.72 77.0 Not Reported 4.92 NW 5.37 W 8.28 NW No 0.000 No Precipitation     0.000 0.000 0.000 0.000 0.000 1.73 Clear
02/26/2021 06:00 AM 37.22 34.88 32.00 67.10 41.72 81.0 Not Reported 3.36 NW 3.58 NW 5.82 NW No 0.000 No Precipitation     0.000 0.000 0.000 0.000 0.000 1.78 Clear
02/26/2021 06:15 AM 37.22 34.88 31.64 67.10 41.72 80.0 Not Reported 4.47 N 5.14 NW 3.80 NW No 0.000 No Precipitation     0.000 0.000 0.000 0.000 0.000 1.78 Clear
02/26/2021 06:30 AM 37.04 34.88 31.82 67.10 41.72 81.0 Not Reported 5.14 N 4.03 NE 5.37 N No 0.000 No Precipitation     0.000 0.000 0.000 0.000 0.000 1.76 Clear
02/26/2021 06:45 AM 37.58 34.88 31.46 67.10 41.72 78.0 Not Reported 5.59 NW 4.70 NW 6.26 N No 0.000 No Precipitation     0.000 0.000 0.000 0.000 0.000 1.72 Clear
02/26/2021 07:00 AM 38.12 35.24 31.28 67.10 41.72 76.0 Not Reported 2.46 N 3.80 NW 5.59 NW No 0.000 No Precipitation     0.000 0.000 0.000 0.000 0.000 1.72 Clear
02/26/2021 07:15 AM 39.02 35.60 31.28 67.10 41.72 73.0 Not Reported 1.34 NW 0.89 E 5.59 NW No 0.000 No Precipitation     0.000 0.000 0.000 0.000 0.000 1.62 Clear
02/26/2021 07:30 AM 39.38 35.96 31.46 67.10 41.72 73.0 Not Reported 4.25 NW 3.80 NW 3.36 NW No 0.000 No Precipitation     0.000 0.000 0.000 0.000 0.000 1.67 Clear
02/26/2021 07:45 AM 40.10 36.86 32.36 67.10 41.72 74.0 Not Reported 3.58 N 2.46 N 4.70 NW No 0.000 No Precipitation     0.000 0.000 0.000 0.000 0.000 1.69 Clear
02/26/2021 08:00 AM 41.72 37.58 32.00 67.10 41.72 68.0 Not Reported 2.91 NE 3.36 E 4.47 E No 0.000 No Precipitation     0.000 0.000 0.000 0.000 0.000 1.66 Clear
02/26/2021 08:15 AM 44.42 39.56 33.26 67.10 41.72 65.0 Not Reported 1.12 E 3.13 E 5.14 E No 0.000 No Precipitation     0.000 0.000 0.000 0.000 0.000 1.66 Clear
02/26/2021 08:30 AM 45.86 40.46 33.98 67.10 41.72 63.0 Not Reported 1.34 NE 0.22 NE 3.58 E No 0.000 No Precipitation     0.000 0.000 0.000 0.000 0.000 1.61 Clear
02/26/2021 08:45 AM 47.12 41.90 35.96 67.10 41.72 65.0 Not Reported 1.79 NE 2.01 N 2.24 NE No 0.000 No Precipitation     0.000 0.000 0.000 0.000 0.000 1.61 Clear
02/26/2021 09:00 AM 48.56 42.98 36.86 67.10 41.72 64.0 Not Reported 1.79 N 1.57 NE 3.13 N No 0.000 No Precipitation     0.000 0.000 0.000 0.000 0.000 1.60 Clear
02/26/2021 09:15 AM 49.82 43.52 36.50 67.10 41.72 60.0 Not Reported 1.12 SW 2.46 SE 2.91 N No 0.000 No Precipitation     0.000 0.000 0.000 0.000 0.000 1.63 Clear
02/26/2021 09:30 AM 50.36 43.88 36.50 67.10 41.72 59.0 Not Reported 2.01 SE 1.12 E 5.37 SE No 0.000 No Precipitation     0.000 0.000 0.000 0.000 0.000 1.60 Clear
02/26/2021 09:45 AM 52.52 44.78 36.32 67.10 41.72 54.0 Not Reported 0.67 SE 1.79 W 4.03 S No 0.000 No Precipitation     0.000 0.000 0.000 0.000 0.000 1.56 Clear
02/26/2021 10:00 AM 51.62 44.60 36.86 67.10 41.72 57.0 Not Reported 4.70 S 4.70 SE 4.92 S No 0.000 No Precipitation     0.000 0.000 0.000 0.000 0.000 1.54 Clear
02/26/2021 10:15 AM 53.60 45.68 37.22 67.10 41.72 54.0 Not Reported 2.91 S 2.46 SE 6.49 S No 0.000 No Precipitation     0.000 0.000 0.000 0.000 0.000 1.65 Clear
02/26/2021 10:30 AM 54.14 44.60 33.80 67.10 41.72 46.0 Not Reported 0.89 W 1.12 SW 4.03 W No 0.000 No Precipitation     0.000 0.000 0.000 0.000 0.000 1.82 Clear
02/26/2021 10:45 AM 55.94 45.68 34.34 67.10 41.72 44.0 Not Reported 3.13 SW 0.89 SE 5.37 W No 0.000 No Precipitation     0.000 0.000 0.000 0.000 0.000 1.70 Clear
02/26/2021 11:00 AM 55.76 45.68 34.16 67.10 41.72 44.0 Not Reported 4.03 SW 1.57 S 4.25 SW No 0.000 No Precipitation     0.000 0.000 0.000 0.000 0.000 1.66 Clear
02/26/2021 11:15 AM 58.64 47.30 34.88 67.10 41.72 41.0 Not Reported 1.57 SE 0.67 W 5.59 SW No 0.000 No Precipitation     0.000 0.000 0.000 0.000 0.000 1.66 Clear
02/26/2021 11:30 AM 60.26 48.38 35.78 67.10 41.72 40.0 Not Reported 0.00 SE 2.24 NW 3.36 SE No 0.000 No Precipitation     0.000 0.000 0.000 0.000 0.000 1.76 Clear
02/26/2021 11:45 AM 61.70 48.56 34.34 67.10 41.72 36.0 Not Reported 0.45 S 0.22 NW 4.03 W No 0.000 No Precipitation     0.000 0.000 0.000 0.000 0.000 1.58 Clear
02/26/2021 12:00 PM 62.06 47.12 29.48 67.10 41.72 29.0 Not Reported 2.24 N 4.92 NW 2.91 N No 0.000 No Precipitation     0.000 0.000 0.000 0.000 0.000 1.68 Clear
02/26/2021 12:15 PM 60.98 47.30 31.82 67.10 41.72 33.0 Not Reported 4.25 N 5.14 NW 5.37 NE No 0.000 No Precipitation     0.000 0.000 0.000 0.000 0.000 1.93 Clear
02/26/2021 12:30 PM 61.52 48.20 33.62 67.10 41.72 35.0 Not Reported 2.91 SW 2.91 N 4.25 NW No 0.000 No Precipitation     0.000 0.000 0.000 0.000 0.000 1.72 Clear
02/26/2021 12:45 PM 61.70 48.02 32.90 67.10 41.72 34.0 Not Reported 6.26 N 8.05 N 6.04 NW No 0.000 No Precipitation     0.000 0.000 0.000 0.000 0.000 1.71 Clear
02/26/2021 01:00 PM 61.88 47.66 31.82 67.10 41.72 32.0 Not Reported 5.59 NW 1.57 W 9.84 N No 0.000 No Precipitation     0.000 0.000 0.000 0.000 0.000 1.72 Clear
02/26/2021 01:15 PM 64.04 49.28 33.44 67.10 41.72 32.0 Not Reported 1.79 N 0.00 NE 7.61 N No 0.000 No Precipitation     0.000 0.000 0.000 0.000 0.000 1.60 Clear
02/26/2021 01:30 PM 65.30 49.82 33.08 67.10 41.72 30.0 Not Reported 3.36 NW 4.03 NE 6.93 NW No 0.000 No Precipitation     0.000 0.000 0.000 0.000 0.000 1.70 Clear
02/26/2021 01:45 PM 64.58 48.92 31.82 67.10 41.72 29.0 Not Reported 2.46 N 6.93 N 6.49 N No 0.000 No Precipitation     0.000 0.000 0.000 0.000 0.000 1.67 Clear
02/26/2021 02:00 PM 64.76 49.10 31.82 67.10 41.72 29.0 Not Reported 2.91 N 0.45 E 7.16 NW No 0.000 No Precipitation     0.000 0.000 0.000 0.000 0.000 1.78 Clear
02/26/2021 02:15 PM 65.66 49.46 31.82 67.10 41.72 28.0 Not Reported 1.79 SW 1.57 W 4.47 N No 0.000 No Precipitation     0.000 0.000 0.000 0.000 0.000 1.73 Clear
02/26/2021 02:30 PM 66.02 49.28 30.20 67.10 41.72 26.0 Not Reported 2.46 SW 0.22 E 5.14 N No 0.000 No Precipitation     0.000 0.000 0.000 0.000 0.000 1.73 Clear
02/26/2021 02:45 PM 66.56 49.64 30.74 67.10 41.72 26.0 Not Reported 2.91 SW 1.34 W 3.80 SW No 0.000 No Precipitation     0.000 0.000 0.000 0.000 0.000 1.79 Clear
02/26/2021 03:00 PM 68.18 50.36 31.10 67.10 41.72 25.0 Not Reported 2.68 NW 5.37 N 4.25 NW No 0.000 No Precipitation     0.000 0.000 0.000 0.000 0.000 1.78 Clear
02/26/2021 03:15 PM 67.28 49.82 30.38 67.10 41.72 25.0 Not Reported 2.91 W 4.03 SW 9.40 NW No 0.000 No Precipitation     0.000 0.000 0.000 0.000 0.000 1.71 Clear
02/26/2021 03:30 PM 67.10 49.46 29.30 67.10 41.72 24.0 Not Reported 4.03 NW 2.46 N 8.50 NW No 0.000 No Precipitation     0.000 0.000 0.000 0.000 0.000 1.81 Clear
02/26/2021 03:45 PM 68.18 50.18 30.20 67.10 41.72 24.0 Not Reported 4.03 NW 6.04 N 5.82 N No 0.000 No Precipitation     0.000 0.000 0.000 0.000 0.000 1.76 Clear
02/26/2021 04:00 PM 67.10 49.10 28.22 67.10 41.72 23.0 Not Reported 4.25 N 6.49 NW 8.72 N No 0.000 No Precipitation     0.000 0.000 0.000 0.000 0.000 1.82 Clear
02/26/2021 04:15 PM 67.10 49.10 28.22 67.10 41.72 23.0 Not Reported 4.92 N 2.46 NW 8.50 NW No 0.000 No Precipitation     0.000 0.000 0.000 0.000 0.000 1.66 Clear
02/26/2021 04:30 PM 68.00 49.82 28.94 67.10 41.72 23.0 Not Reported 2.68 NW 3.58 NW 5.37 NW No 0.000 No Precipitation     0.000 0.000 0.000 0.000 0.000 1.58 Clear
02/26/2021 04:45 PM 67.82 50.00 29.84 67.10 41.72 24.0 Not Reported 2.46 NW 0.45 E 4.92 NW No 0.000 No Precipitation     0.000 0.000 0.000 0.000 0.000 1.71 Clear
02/26/2021 05:00 PM 68.00 49.82 28.94 67.10 41.72 23.0 Not Reported 2.01 NW 2.46 NW 3.80 W No 0.000 No Precipitation     0.000 0.000 0.000 0.000 0.000 1.63 Clear
02/26/2021 05:15 PM 67.28 49.82 30.38 67.10 41.72 25.0 Not Reported 0.45 NE 0.67 NE 2.91 N No 0.000 No Precipitation     0.000 0.000 0.000 0.000 0.000 1.73 Clear
02/26/2021 05:30 PM 66.02 48.92 29.30 68.90 36.50 25.0 Not Reported 2.24 SW 2.24 SW 2.68 SW No 0.000 No Precipitation     0.000 0.000 0.000 0.000 0.000 1.71 Clear
02/26/2021 05:45 PM 64.94 48.92 31.10 68.90 36.50 28.0 Not Reported 1.34 W 2.24 W 3.36 SW No 0.000 No Precipitation     0.000 0.000 0.000 0.000 0.000 1.72 Clear
02/26/2021 06:00 PM 63.50 48.92 33.08 68.90 36.50 32.0 Not Reported 2.24 SW 2.24 SW 3.13 W No 0.000 No Precipitation     0.000 0.000 0.000 0.000 0.000 1.71 Clear
02/26/2021 06:15 PM 60.98 48.74 35.78 68.90 36.50 39.0 Not Reported 4.03 S 5.82 S 3.36 SW No 0.000 No Precipitation     0.000 0.000 0.000 0.000 0.000 1.69 Clear
02/26/2021 06:30 PM 59.00 48.56 38.12 68.90 36.50 46.0 Not Reported 6.49 S 6.26 S 7.38 S No 0.000 No Precipitation     0.000 0.000 0.000 0.000 0.000 1.67 Clear
02/26/2021 06:45 PM 58.64 48.56 38.48 68.90 36.50 47.0 Not Reported 7.16 S 8.72 S 7.83 S No 0.000 No Precipitation     0.000 0.000 0.000 0.000 0.000 1.67 Clear
02/26/2021 07:00 PM 56.66 47.84 39.20 68.90 36.50 52.0 Not Reported 6.49 S 5.37 S 7.83 SW No 0.000 No Precipitation     0.000 0.000 0.000 0.000 0.000 1.68 Clear
02/26/2021 07:15 PM 53.96 46.40 38.48 68.90 36.50 56.0 Not Reported 8.72 SW 9.40 SW 7.38 S No 0.000 No Precipitation     0.000 0.000 0.000 0.000 0.000 1.67 Clear
02/26/2021 07:30 PM 53.96 47.30 40.82 68.90 36.50 61.0 Not Reported 6.49 SW 6.49 SW 9.62 SW No 0.000 No Precipitation     0.000 0.000 0.000 0.000 0.000 1.58 Clear
02/26/2021 07:45 PM 54.32 47.48 40.64 68.90 36.50 60.0 Not Reported 5.37 SW 4.92 S 6.93 SW No 0.000 No Precipitation     0.000 0.000 0.000 0.000 0.000 1.58 Clear
02/26/2021 08:00 PM 53.42 47.30 41.54 68.90 36.50 64.0 Not Reported 3.80 SW 4.25 SW 6.71 S No 0.000 No Precipitation     0.000 0.000 0.000 0.000 0.000 1.54 Clear
02/26/2021 08:15 PM 53.24 47.30 41.72 68.90 36.50 65.0 Not Reported 4.47 SW 4.47 W 5.82 SW No 0.000 No Precipitation     0.000 0.000 0.000 0.000 0.000 1.52 Clear
02/26/2021 08:30 PM 54.14 48.02 42.08 68.90 36.50 64.0 Not Reported 4.47 W 2.91 NW 5.59 W No 0.000 No Precipitation     0.000 0.000 0.000 0.000 0.000 1.51 Clear
02/26/2021 08:45 PM 54.32 46.94 39.38 68.90 36.50 57.0 Not Reported 5.14 N 5.59 N 12.08 N No 0.000 No Precipitation     0.000 0.000 0.000 0.000 0.000 1.54 Clear
02/26/2021 09:00 PM 54.32 46.22 37.40 68.90 36.50 53.0 Not Reported 7.83 NW 7.83 NW 8.28 NW No 0.000 No Precipitation     0.000 0.000 0.000 0.000 0.000 1.51 Clear
02/26/2021 09:15 PM 54.32 44.42 32.72 68.90 36.50 44.0 Not Reported 8.72 N 8.72 N 9.40 N No 0.000 No Precipitation     0.000 0.000 0.000 0.000 0.000 1.60 Clear
02/26/2021 09:30 PM 55.22 44.24 30.74 68.90 36.50 39.0 Not Reported 10.96 N 10.29 N 10.51 N No 0.000 No Precipitation     0.000 0.000 0.000 0.000 0.000 1.48 Clear
02/26/2021 09:45 PM 55.04 44.06 30.56 68.90 36.50 39.0 Not Reported 9.62 N 8.72 N 12.75 N No 0.000 No Precipitation     0.000 0.000 0.000 0.000 0.000 1.67 Clear
02/26/2021 10:00 PM 53.24 43.52 32.00 68.90 36.50 44.0 Not Reported 6.93 N 5.37 N 10.29 N No 0.000 No Precipitation     0.000 0.000 0.000 0.000 0.000 1.72 Clear
02/26/2021 10:15 PM 51.08 42.62 32.00 68.90 36.50 48.0 Not Reported 6.71 N 7.61 N 8.05 N No 0.000 No Precipitation     0.000 0.000 0.000 0.000 0.000 1.68 Clear
02/26/2021 10:30 PM 50.72 41.72 30.20 68.90 36.50 45.0 Not Reported 8.50 N 9.84 N 8.28 N No 0.000 No Precipitation     0.000 0.000 0.000 0.000 0.000 1.70 Clear
02/26/2021 10:45 PM 50.18 41.72 30.92 68.90 36.50 47.0 Not Reported 11.18 NW 10.74 NW 10.51 N No 0.000 No Precipitation     0.000 0.000 0.000 0.000 0.000 1.66 Clear
02/26/2021 11:00 PM 50.00 41.18 29.66 68.90 36.50 45.0 Not Reported 8.72 NW 8.72 NW 11.63 N No 0.000 No Precipitation     0.000 0.000 0.000 0.000 0.000 1.69 Clear
02/26/2021 11:15 PM 49.64 40.82 29.30 68.90 36.50 45.0 Not Reported 10.96 NW 9.62 N 11.41 NW No 0.000 No Precipitation     0.000 0.000 0.000 0.000 0.000 1.68 Clear
02/26/2021 11:30 PM 48.38 40.28 29.66 68.90 36.50 48.0 Not Reported 10.07 NW 10.29 NW 12.30 NW No 0.000 No Precipitation     0.000 0.000 0.000 0.000 0.000 1.67 Clear
02/26/2021 11:45 PM 49.10 40.64 29.30 68.90 36.50 46.0 Not Reported 10.74 N 11.41 NW 10.96 N No 0.000 No Precipitation     0.000 0.000 0.000 0.000 0.000 1.63 Clear